Time;durP1;ratioP1;P1;durP2;ratioP2;P2;SDS_P1;SDS_P2;PMS_P1;PMS_P2;Temp;Humidity;BMP_temperature;BMP_pressure;BME280_temperature;BME280_humidity;BME280_pressure;Samples;Min_cycle;Max_cycle;Signal;HPM_P1;HPM_P2
2023/08/01 00:00:46;;;;;;;3.38;2.45;;;;;;;25.54;76.65;97621.16;4992356;28;102652;-61
2023/08/01 00:03:14;;;;;;;3.53;2.65;;;;;;;25.69;76.24;97635.03;5000815;28;102634;-62
2023/08/01 00:05:44;;;;;;;4.38;3.60;;;;;;;25.34;77.63;97631.41;4998412;28;103018;-60
2023/08/01 00:08:13;;;;;;;4.60;3.50;;;;;;;24.94;78.18;97624.88;4996730;28;103183;-61
2023/08/01 00:10:42;;;;;;;6.47;3.92;;;;;;;25.27;78.18;97620.66;4992323;28;102749;-61
2023/08/01 00:13:10;;;;;;;3.83;2.97;;;;;;;25.49;77.04;97618.28;4996367;28;104131;-61
2023/08/01 00:15:40;;;;;;;2.80;2.60;;;;;;;25.59;77.20;97612.34;4996446;28;103330;-61
2023/08/01 00:18:14;;;;;;;4.30;3.35;;;;;;;25.39;78.22;97599.09;4994914;28;103182;-61
2023/08/01 00:20:42;;;;;;;4.60;3.20;;;;;;;25.43;77.76;97607.56;4990768;28;102760;-64
2023/08/01 00:23:10;;;;;;;5.73;3.70;;;;;;;24.39;83.53;97595.19;4999136;28;104448;-64
2023/08/01 00:25:40;;;;;;;6.18;4.10;;;;;;;24.62;81.97;97589.06;4999929;28;103403;-64
2023/08/01 00:28:08;;;;;;;4.87;3.80;;;;;;;24.69;82.23;97596.06;4994634;28;104129;-65
2023/08/01 00:30:36;;;;;;;4.20;3.45;;;;;;;24.85;81.69;97588.41;4999778;28;102861;-64
2023/08/01 00:33:06;;;;;;;5.80;4.30;;;;;;;24.68;82.41;97583.59;4997874;28;103547;-64
2023/08/01 00:35:34;;;;;;;3.20;2.90;;;;;;;24.91;82.58;97577.53;5012966;27;103451;-65
2023/08/01 00:38:02;;;;;;;3.20;2.90;;;;;;;25.02;82.37;97581.31;5000907;28;103247;-65
2023/08/01 00:40:31;;;;;;;3.90;3.33;;;;;;;24.86;82.61;97557.66;5002951;28;102984;-65
2023/08/01 00:42:59;;;;;;;2.80;2.60;;;;;;;25.27;81.37;97554.97;5001777;28;104078;-65
2023/08/01 00:45:28;;;;;;;3.00;2.70;;;;;;;25.49;80.33;97553.41;4996340;28;103310;-65
2023/08/01 00:47:57;;;;;;;3.20;2.47;;;;;;;25.60;79.51;97539.09;5002627;28;103424;-65
2023/08/01 00:50:26;;;;;;;3.20;2.65;;;;;;;25.72;79.61;97537.22;4998745;28;102913;-65
2023/08/01 00:52:55;;;;;;;4.05;3.50;;;;;;;25.56;80.57;97534.38;4999132;28;102782;-65
2023/08/01 00:55:24;;;;;;;3.30;3.00;;;;;;;25.56;79.81;97531.69;4999992;28;103488;-65
2023/08/01 00:57:53;;;;;;;4.50;3.50;;;;;;;25.39;79.03;97518.00;5012531;27;104283;-65
2023/08/01 01:00:22;;;;;;;4.28;3.50;;;;;;;24.79;81.22;97520.75;5014978;27;103402;-65
2023/08/01 01:02:50;;;;;;;3.65;3.30;;;;;;;25.11;80.60;97513.25;4993713;28;103006;-65
2023/08/01 01:05:20;;;;;;;4.13;3.50;;;;;;;24.96;81.35;97512.84;4999590;28;106562;-65
2023/08/01 01:07:50;;;;;;;4.95;3.70;;;;;;;24.71;80.53;97504.84;4994416;28;103332;-65
2023/08/01 01:10:19;;;;;;;5.00;3.70;;;;;;;24.49;81.74;97506.38;4994878;28;102729;-65
2023/08/01 01:12:47;;;;;;;3.83;3.50;;;;;;;24.14;81.73;97499.97;5016209;27;103045;-65
2023/08/01 01:15:18;;;;;;;5.65;3.97;;;;;;;24.06;81.74;97498.34;5012585;27;104156;-65
2023/08/01 01:17:46;;;;;;;3.88;3.38;;;;;;;24.35;80.04;97486.00;4994200;28;103284;-65
2023/08/01 01:20:15;;;;;;;4.03;3.15;;;;;;;24.69;78.70;97477.25;4999101;28;103103;-65
2023/08/01 01:22:45;;;;;;;4.40;3.30;;;;;;;24.63;79.34;97488.13;4996686;28;102767;-65
2023/08/01 01:25:14;;;;;;;3.83;3.28;;;;;;;24.85;78.52;97478.50;4996779;28;103702;-65
2023/08/01 01:27:45;;;;;;;3.88;3.40;;;;;;;24.75;79.77;97486.31;5013952;27;103328;-65
2023/08/01 01:30:13;;;;;;;4.10;3.47;;;;;;;24.84;80.19;97490.38;5014373;27;102883;-64
2023/08/01 01:32:42;;;;;;;4.75;3.60;;;;;;;24.86;80.11;97487.44;5000102;28;102652;-64
2023/08/01 01:35:11;;;;;;;3.50;3.17;;;;;;;24.98;80.23;97474.81;5011779;27;104414;-64
2023/08/01 01:37:39;;;;;;;4.00;3.50;;;;;;;24.54;80.80;97468.72;4993864;28;103297;-64
2023/08/01 01:40:10;;;;;;;5.22;4.13;;;;;;;24.29;81.72;97475.28;5011754;27;102753;-65
2023/08/01 01:42:38;;;;;;;5.85;4.10;;;;;;;23.67;85.43;97474.50;4991313;28;103951;-65
2023/08/01 01:45:07;;;;;;;4.30;3.33;;;;;;;24.83;81.61;97477.09;5009826;27;104500;-65
2023/08/01 01:47:35;;;;;;;4.07;2.97;;;;;;;25.18;79.54;97459.91;4995305;28;103210;-65
2023/08/01 01:50:05;;;;;;;3.55;3.22;;;;;;;25.01;80.32;97452.72;5015851;27;102673;-66
2023/08/01 01:52:33;;;;;;;3.50;3.20;;;;;;;24.67;81.83;97452.34;4990664;28;103797;-66
2023/08/01 01:55:01;;;;;;;4.60;3.80;;;;;;;24.57;82.29;97446.69;5016896;27;103737;-66
2023/08/01 01:57:31;;;;;;;5.07;4.10;;;;;;;24.49;82.94;97438.09;5010424;27;103214;-65
2023/08/01 02:00:00;;;;;;;2.73;2.53;;;;;;;24.97;81.60;97424.53;4992591;28;102942;-62
2023/08/01 02:02:29;;;;;;;6.15;4.13;;;;;;;24.77;81.18;97425.63;5010545;27;103816;-62
2023/08/01 02:04:57;;;;;;;3.13;2.83;;;;;;;24.98;81.37;97426.19;5015464;27;104523;-62
2023/08/01 02:07:27;;;;;;;2.58;2.30;;;;;;;25.20;80.73;97435.38;4991699;28;103687;-62
2023/08/01 02:09:56;;;;;;;3.00;2.78;;;;;;;25.30;79.11;97428.31;5006521;27;102822;-62
2023/08/01 02:12:24;;;;;;;4.33;3.93;;;;;;;25.07;79.97;97435.56;5013235;27;104172;-62
2023/08/01 02:14:54;;;;;;;4.28;3.85;;;;;;;24.63;83.47;97417.94;4998990;28;103066;-61
2023/08/01 02:17:22;;;;;;;4.75;3.88;;;;;;;24.11;86.66;97425.69;5000317;28;103185;-61
2023/08/01 02:19:50;;;;;;;4.05;3.58;;;;;;;24.16;87.30;97433.13;4999949;28;102697;-62
2023/08/01 02:22:20;;;;;;;5.00;4.10;;;;;;;23.80;88.33;97428.56;5000311;28;103756;-61
2023/08/01 02:24:49;;;;;;;4.95;4.22;;;;;;;23.44;89.64;97417.72;5014965;27;104221;-61
2023/08/01 02:27:17;;;;;;;5.47;3.90;;;;;;;24.37;86.12;97423.69;4995619;28;103314;-61
2023/08/01 02:29:45;;;;;;;3.33;3.03;;;;;;;24.60;85.80;97427.31;4998502;28;102650;-61
2023/08/01 02:32:15;;;;;;;2.90;2.60;;;;;;;24.98;83.80;97420.78;4999300;28;103651;-61
2023/08/01 02:34:44;;;;;;;5.43;3.85;;;;;;;24.86;83.82;97434.25;4996163;28;104540;-62
2023/08/01 02:37:11;;;;;;;4.05;3.35;;;;;;;25.00;82.58;97434.88;5016872;27;103232;-62
2023/08/01 02:39:40;;;;;;;3.58;3.28;;;;;;;25.02;83.23;97421.94;4999098;28;103277;-65
2023/08/01 02:42:08;;;;;;;2.30;2.10;;;;;;;25.22;82.43;97419.72;5001702;28;104225;-65
2023/08/01 02:44:36;;;;;;;3.90;3.17;;;;;;;25.33;81.39;97414.34;5013326;27;104256;-65
2023/08/01 02:47:05;;;;;;;3.40;3.10;;;;;;;25.35;81.53;97416.78;4998306;28;104456;-65
2023/08/01 02:49:35;;;;;;;4.82;3.80;;;;;;;25.24;81.99;97409.50;5014781;27;102875;-65
2023/08/01 02:52:04;;;;;;;3.50;2.97;;;;;;;25.34;80.60;97410.59;5013761;27;102847;-65
2023/08/01 02:54:32;;;;;;;5.53;4.38;;;;;;;24.24;86.63;97395.03;5000786;28;103077;-65
2023/08/01 02:57:00;;;;;;;4.20;3.47;;;;;;;24.97;83.66;97406.44;5017916;27;103359;-65
2023/08/01 02:59:28;;;;;;;4.10;2.93;;;;;;;25.28;83.44;97395.31;5001264;28;103063;-65
2023/08/01 03:01:56;;;;;;;3.60;3.20;;;;;;;25.33;82.64;97398.13;4995034;28;103124;-65
2023/08/01 03:04:24;;;;;;;3.35;3.05;;;;;;;25.36;82.17;97391.41;5010291;27;104468;-62
2023/08/01 03:07:14;;;;;;;3.20;2.90;;;;;;;25.32;81.26;97390.22;5014731;27;104159;-63
2023/08/01 03:09:42;;;;;;;2.80;2.60;;;;;;;25.37;80.91;97399.28;4997992;28;102673;-62
2023/08/01 03:12:11;;;;;;;3.53;3.22;;;;;;;25.40;80.05;97392.59;4995676;28;103739;-62
2023/08/01 03:14:43;;;;;;;3.42;3.13;;;;;;;25.21;80.57;97389.19;4998756;28;103166;-65
2023/08/01 03:17:13;;;;;;;3.88;3.45;;;;;;;25.11;80.91;97378.16;4999415;28;103802;-65
2023/08/01 03:19:42;;;;;;;5.40;3.70;;;;;;;24.92;80.65;97378.47;4993627;28;102791;-65
2023/08/01 03:22:11;;;;;;;4.78;3.50;;;;;;;24.83;80.61;97375.28;4996057;28;103745;-65
2023/08/01 03:24:41;;;;;;;3.90;3.38;;;;;;;24.76;79.98;97363.72;5001086;28;103362;-65
2023/08/01 03:27:09;;;;;;;3.92;3.42;;;;;;;24.72;79.51;97385.00;4998443;28;103246;-65
2023/08/01 03:29:38;;;;;;;4.43;3.95;;;;;;;24.30;81.13;97391.44;5013310;27;102672;-65
2023/08/01 03:32:06;;;;;;;3.78;3.28;;;;;;;24.74;80.87;97379.34;4999586;28;104328;-65
2023/08/01 03:34:35;;;;;;;3.25;2.95;;;;;;;24.98;79.37;97378.38;4996067;28;104206;-65
2023/08/01 03:37:05;;;;;;;3.80;3.40;;;;;;;24.87;79.77;97386.47;4998617;28;103438;-65
2023/08/01 03:39:33;;;;;;;3.75;3.30;;;;;;;24.63;81.39;97375.56;4994887;28;103794;-65
2023/08/01 03:42:03;;;;;;;3.38;3.08;;;;;;;24.79;81.33;97372.22;4999056;28;103729;-65
2023/08/01 03:44:32;;;;;;;4.15;3.53;;;;;;;24.70;80.40;97370.88;4993092;28;103872;-62
2023/08/01 03:47:08;;;;;;;4.40;3.35;;;;;;;25.00;79.91;97375.44;5011709;27;103537;-65
2023/08/01 03:49:36;;;;;;;5.20;4.05;;;;;;;24.24;80.54;97362.66;5001082;28;103751;-65
2023/08/01 03:52:05;;;;;;;5.27;4.00;;;;;;;24.47;80.99;97370.00;4995781;28;104081;-65
2023/08/01 03:54:33;;;;;;;4.57;3.40;;;;;;;24.55;80.17;97365.13;4999992;28;103814;-65
2023/08/01 03:57:02;;;;;;;5.03;3.92;;;;;;;24.30;81.50;97359.06;5001734;28;103361;-65
2023/08/01 03:59:30;;;;;;;3.83;3.53;;;;;;;24.44;81.25;97365.06;4997049;28;104314;-65
2023/08/01 04:01:58;;;;;;;6.53;3.78;;;;;;;24.49;80.53;97341.75;5001708;28;104036;-65
2023/08/01 04:04:27;;;;;;;4.88;3.92;;;;;;;23.59;83.22;97335.47;4996848;28;103096;-62
2023/08/01 04:06:55;;;;;;;3.47;3.17;;;;;;;23.73;83.17;97335.28;4993890;28;104284;-61
2023/08/01 04:09:24;;;;;;;4.15;3.47;;;;;;;23.00;85.84;97325.28;4997695;28;102618;-61
2023/08/01 04:11:52;;;;;;;5.28;3.72;;;;;;;23.43;84.48;97303.75;5000184;28;102854;-62
2023/08/01 04:14:22;;;;;;;4.40;3.40;;;;;;;23.45;84.11;97258.50;4999859;28;103269;-63
2023/08/01 04:16:51;;;;;;;4.22;3.50;;;;;;;23.40;83.47;97246.78;4998211;28;103295;-62
2023/08/01 04:19:20;;;;;;;4.00;3.50;;;;;;;23.52;83.00;97243.06;4999625;28;102938;-62
2023/08/01 04:21:49;;;;;;;5.20;3.60;;;;;;;23.14;85.27;97242.47;5004018;28;103180;-66
2023/08/01 04:24:18;;;;;;;5.07;3.35;;;;;;;23.17;84.75;97242.03;4995182;28;103666;-66
2023/08/01 04:26:46;;;;;;;4.40;3.55;;;;;;;23.17;84.40;97233.94;4992044;28;103074;-62
2023/08/01 04:29:17;;;;;;;4.70;3.30;;;;;;;22.92;85.41;97246.66;5002541;28;102705;-66
2023/08/01 04:31:48;;;;;;;4.57;3.38;;;;;;;23.39;83.63;97254.03;5001642;28;103048;-62
2023/08/01 04:34:16;;;;;;;4.65;3.28;;;;;;;23.73;82.31;97238.25;5013955;27;104300;-66
2023/08/01 04:36:46;;;;;;;4.25;3.25;;;;;;;23.46;82.91;97214.38;5004352;28;103192;-60
2023/08/01 04:39:15;;;;;;;4.78;3.40;;;;;;;23.44;82.60;97202.97;5003370;28;102723;-69
2023/08/01 04:41:44;;;;;;;4.90;3.30;;;;;;;23.88;81.27;97209.00;4997282;28;103747;-65
2023/08/01 04:44:13;;;;;;;4.25;3.38;;;;;;;23.64;81.23;97200.81;4997464;28;103916;-69
2023/08/01 04:46:49;;;;;;;4.82;3.55;;;;;;;23.47;82.99;97201.69;4995128;28;104452;-70
2023/08/01 04:49:18;;;;;;;3.10;2.80;;;;;;;24.29;80.98;97198.19;4998861;28;102689;-63
2023/08/01 04:51:47;;;;;;;4.60;2.93;;;;;;;23.92;84.03;97223.66;4999729;28;102844;-69
2023/08/01 04:54:16;;;;;;;4.50;3.00;;;;;;;23.73;83.50;97238.25;4997681;28;103696;-69
2023/08/01 04:56:45;;;;;;;4.90;3.50;;;;;;;22.61;86.65;97260.19;4997085;28;103001;-69
2023/08/01 04:59:13;;;;;;;4.53;3.25;;;;;;;23.74;82.79;97267.69;5001663;28;102628;-69
2023/08/01 05:01:43;;;;;;;4.20;3.20;;;;;;;22.79;84.82;97279.91;4987224;28;103513;-69
2023/08/01 05:04:13;;;;;;;4.47;3.17;;;;;;;22.50;85.37;97275.19;5011234;27;104472;-69
2023/08/01 05:06:42;;;;;;;3.90;2.70;;;;;;;22.56;85.83;97286.94;4994212;28;103134;-69
2023/08/01 05:09:11;;;;;;;4.83;2.70;;;;;;;22.58;84.74;97306.38;5015815;27;103383;-69
2023/08/01 05:11:40;;;;;;;4.82;3.00;;;;;;;23.00;84.80;97329.84;4996684;28;103429;-70
2023/08/01 05:14:09;;;;;;;5.38;3.00;;;;;;;22.64;85.21;97319.81;4999951;28;102965;-70
2023/08/01 05:16:38;;;;;;;3.33;2.63;;;;;;;23.01;83.18;97304.56;4998323;28;103324;-70
2023/08/01 05:19:07;;;;;;;3.33;2.33;;;;;;;23.49;80.68;97297.44;4995841;28;102694;-69
2023/08/01 05:21:38;;;;;;;3.50;2.90;;;;;;;23.58;81.37;97279.91;4996657;28;103933;-69
2023/08/01 05:24:08;;;;;;;3.43;2.70;;;;;;;23.73;79.94;97265.19;4993049;28;103108;-69
2023/08/01 05:26:39;;;;;;;3.47;2.88;;;;;;;24.03;78.90;97271.41;4996391;28;104538;-69
2023/08/01 05:29:09;;;;;;;4.63;3.07;;;;;;;23.79;79.14;97275.91;4996218;28;102919;-69
2023/08/01 05:31:38;;;;;;;3.97;2.80;;;;;;;23.74;79.28;97283.03;4995038;28;102935;-70
2023/08/01 05:34:09;;;;;;;2.92;2.55;;;;;;;23.99;78.94;97281.84;4997087;28;103349;-69
2023/08/01 05:36:39;;;;;;;3.97;2.50;;;;;;;24.40;76.83;97286.44;4997944;28;103039;-70
2023/08/01 05:39:09;;;;;;;2.38;2.17;;;;;;;24.47;77.43;97279.06;5015313;27;102748;-69
2023/08/01 05:41:38;;;;;;;4.10;2.80;;;;;;;24.64;77.33;97280.03;4998614;28;103778;-70
2023/08/01 05:44:08;;;;;;;2.92;2.63;;;;;;;24.92;76.33;97282.06;5004915;27;104410;-69
2023/08/01 05:46:37;;;;;;;2.95;2.33;;;;;;;25.06;76.60;97293.44;4992098;28;103178;-70
2023/08/01 05:49:08;;;;;;;3.33;2.20;;;;;;;24.91;77.75;97285.00;4992888;28;102948;-69
2023/08/01 05:51:36;;;;;;;3.35;2.53;;;;;;;24.91;78.50;97290.38;4996945;28;103146;-70
2023/08/01 05:54:07;;;;;;;2.42;2.17;;;;;;;25.23;76.92;97294.38;4996115;28;104083;-64
2023/08/01 05:56:37;;;;;;;2.35;2.15;;;;;;;25.17;77.75;97289.91;4996504;28;103287;-64
2023/08/01 05:59:08;;;;;;;2.73;2.53;;;;;;;25.18;77.52;97296.97;4994614;28;104141;-64
2023/08/01 06:01:38;;;;;;;3.67;3.20;;;;;;;24.93;77.60;97307.19;4998604;28;102964;-64
2023/08/01 06:04:08;;;;;;;4.90;3.50;;;;;;;24.92;76.38;97302.84;4985407;28;104146;-64
2023/08/01 06:06:37;;;;;;;4.80;3.20;;;;;;;24.90;74.69;97294.97;4996103;28;103347;-64
2023/08/01 06:09:09;;;;;;;3.30;2.85;;;;;;;25.13;75.41;97304.94;4997932;28;102697;-65
2023/08/01 06:11:38;;;;;;;5.93;3.80;;;;;;;24.36;76.82;97314.13;4993670;28;102904;-64
2023/08/01 06:14:08;;;;;;;5.53;3.60;;;;;;;24.27;76.73;97289.34;4999372;28;104479;-64
2023/08/01 06:16:39;;;;;;;5.07;3.40;;;;;;;23.88;74.96;97292.59;5001260;28;104055;-69
2023/08/01 06:19:09;;;;;;;4.90;3.83;;;;;;;23.68;75.95;97295.53;5001013;28;103118;-69
2023/08/01 06:21:38;;;;;;;4.55;3.75;;;;;;;24.25;74.21;97291.47;4996516;28;104538;-69
2023/08/01 06:24:10;;;;;;;4.50;3.30;;;;;;;23.74;75.96;97310.00;4991947;28;103387;-64
2023/08/01 06:26:39;;;;;;;4.47;3.50;;;;;;;23.40;76.68;97320.34;4996981;28;103586;-64
2023/08/01 06:29:08;;;;;;;6.05;4.00;;;;;;;24.08;76.93;97331.69;4999907;28;102616;-63
2023/08/01 06:31:37;;;;;;;5.53;3.92;;;;;;;23.72;80.70;97323.69;5018173;27;102596;-63
2023/08/01 06:34:06;;;;;;;7.00;4.15;;;;;;;23.21;82.62;97332.13;4998664;28;103899;-62
2023/08/01 06:36:35;;;;;;;4.57;3.60;;;;;;;23.38;82.92;97338.59;4997647;28;103314;-62
2023/08/01 06:39:04;;;;;;;5.78;4.20;;;;;;;23.75;84.39;97344.00;4999426;28;102864;-62
2023/08/01 06:41:36;;;;;;;6.40;4.27;;;;;;;22.77;87.08;97341.22;5001109;28;103007;-62
2023/08/01 06:44:05;;;;;;;5.93;4.25;;;;;;;22.96;87.56;97350.19;4996992;28;103075;-62
2023/08/01 06:46:34;;;;;;;5.43;4.00;;;;;;;23.43;85.40;97341.47;5001083;28;104721;-62
2023/08/01 06:49:03;;;;;;;6.33;4.53;;;;;;;23.90;83.21;97345.25;4995837;28;104562;-62
2023/08/01 06:51:31;;;;;;;4.63;4.13;;;;;;;23.29;86.02;97352.56;5014664;27;102732;-62
2023/08/01 06:54:01;;;;;;;4.50;4.10;;;;;;;23.83;84.40;97346.38;5001815;28;103985;-62
2023/08/01 06:56:29;;;;;;;6.20;4.60;;;;;;;23.22;86.87;97341.84;4998945;28;103538;-62
2023/08/01 06:59:00;;;;;;;5.80;3.97;;;;;;;23.38;86.29;97325.13;4994280;28;102926;-61
2023/08/01 07:01:30;;;;;;;5.45;4.13;;;;;;;23.28;86.12;97313.19;4999218;28;102640;-62
2023/08/01 07:03:59;;;;;;;5.80;4.38;;;;;;;23.15;86.53;97313.34;4999793;28;103270;-63
2023/08/01 07:06:28;;;;;;;6.63;4.30;;;;;;;23.53;85.03;97314.81;4998975;28;103292;-62
2023/08/01 07:08:58;;;;;;;5.57;4.60;;;;;;;22.94;87.89;97315.41;4995681;28;102613;-62
2023/08/01 07:11:27;;;;;;;7.60;5.40;;;;;;;22.42;88.84;97310.44;5000042;28;103012;-63
2023/08/01 07:13:57;;;;;;;6.90;5.78;;;;;;;22.76;88.50;97306.47;5001379;28;103055;-63
2023/08/01 07:16:27;;;;;;;6.72;5.18;;;;;;;23.30;86.92;97301.13;4996454;28;103207;-67
2023/08/01 07:18:57;;;;;;;6.40;5.30;;;;;;;22.86;87.69;97296.00;5001057;28;102930;-67
2023/08/01 07:21:25;;;;;;;7.40;5.97;;;;;;;22.52;88.13;97300.84;5001366;28;104055;-67
2023/08/01 07:23:55;;;;;;;7.13;5.80;;;;;;;22.37;88.35;97307.59;5002146;28;104463;-66
2023/08/01 07:26:23;;;;;;;6.13;5.50;;;;;;;22.10;90.71;97327.63;4999873;28;103142;-66
2023/08/01 07:28:52;;;;;;;8.20;5.97;;;;;;;21.92;92.41;97352.56;5004133;28;103299;-67
2023/08/01 07:31:21;;;;;;;8.10;6.00;;;;;;;21.49;96.07;97363.03;5001818;28;104309;-67
2023/08/01 07:33:51;;;;;;;8.52;5.65;;;;;;;21.52;96.15;97324.16;4995281;28;105242;-63
2023/08/01 07:36:21;;;;;;;7.60;5.72;;;;;;;21.35;96.85;97335.38;5000375;28;104138;-62
2023/08/01 07:38:50;;;;;;;8.07;5.95;;;;;;;21.49;97.98;97324.59;5001806;28;102687;-62
2023/08/01 07:41:19;;;;;;;7.57;5.70;;;;;;;21.51;99.12;97327.88;4999994;28;104380;-63
2023/08/01 07:43:48;;;;;;;8.13;5.57;;;;;;;21.21;100.00;97328.41;5003394;28;103186;-62
2023/08/01 07:46:20;;;;;;;5.32;4.72;;;;;;;21.74;99.32;97312.06;4998441;28;103270;-62
2023/08/01 07:48:53;;;;;;;6.10;4.90;;;;;;;21.61;98.26;97310.28;5001946;28;102548;-62
2023/08/01 07:51:22;;;;;;;7.93;5.03;;;;;;;21.30;99.90;97332.50;5000387;28;102617;-62
2023/08/01 07:53:52;;;;;;;6.65;4.63;;;;;;;22.04;97.44;97334.69;5013009;27;103387;-62
2023/08/01 07:56:22;;;;;;;5.90;4.88;;;;;;;21.98;98.04;97330.16;5018730;27;104404;-62
2023/08/01 07:58:52;;;;;;;5.85;4.88;;;;;;;21.14;100.00;97335.63;5002101;28;102611;-62
2023/08/01 08:01:24;;;;;;;7.57;4.85;;;;;;;21.67;100.00;97332.78;5000968;28;104180;-62
2023/08/01 08:03:58;;;;;;;5.53;4.22;;;;;;;21.90;100.00;97319.66;4999362;28;102693;-66
2023/08/01 08:06:34;;;;;;;6.50;4.65;;;;;;;22.32;97.89;97310.09;4999714;28;103419;-67
2023/08/01 08:09:06;;;;;;;4.88;4.28;;;;;;;22.80;96.56;97313.88;5003862;28;102656;-67
2023/08/01 08:11:38;;;;;;;5.63;4.47;;;;;;;22.15;98.12;97322.41;5009960;27;102849;-67
2023/08/01 08:14:08;;;;;;;5.07;4.47;;;;;;;21.90;100.00;97333.09;5002976;28;103649;-68
2023/08/01 08:16:39;;;;;;;6.23;4.07;;;;;;;22.25;99.41;97331.69;5000428;28;103271;-66
2023/08/01 08:19:12;;;;;;;4.43;3.72;;;;;;;21.82;100.00;97330.63;4993116;28;102757;-63
2023/08/01 08:21:42;;;;;;;4.05;3.38;;;;;;;21.73;100.00;97331.91;4993061;28;102954;-62
2023/08/01 08:24:12;;;;;;;4.15;3.20;;;;;;;22.20;100.00;97319.91;4995649;28;103057;-62
2023/08/01 08:26:41;;;;;;;4.47;3.10;;;;;;;22.98;96.15;97330.09;4998194;28;103290;-62
2023/08/01 08:29:12;;;;;;;4.43;3.10;;;;;;;22.39;97.97;97332.41;4998127;28;102875;-63
2023/08/01 08:31:41;;;;;;;3.47;3.00;;;;;;;22.59;98.24;97321.50;4995043;28;102936;-62
2023/08/01 08:34:13;;;;;;;3.42;2.90;;;;;;;22.41;98.52;97333.84;5000057;28;104837;-67
2023/08/01 08:36:43;;;;;;;4.13;3.03;;;;;;;22.66;97.10;97324.97;4997004;28;103076;-67
2023/08/01 08:39:15;;;;;;;3.40;2.90;;;;;;;22.92;96.19;97327.44;4997177;28;103240;-66
2023/08/01 08:41:50;;;;;;;4.87;2.70;;;;;;;23.39;95.05;97332.16;5013534;27;103168;-66
2023/08/01 08:44:24;;;;;;;2.90;2.40;;;;;;;23.90;94.04;97336.31;4999127;28;103907;-66
2023/08/01 08:47:04;;;;;;;3.22;2.65;;;;;;;23.61;93.88;97333.34;5000021;28;103966;-66
2023/08/01 08:49:40;;;;;;;2.73;2.53;;;;;;;23.75;93.41;97322.44;4999999;28;102892;-65
2023/08/01 08:52:17;;;;;;;3.08;2.40;;;;;;;23.93;92.01;97327.78;5006573;28;102711;-65
2023/08/01 08:54:53;;;;;;;3.27;2.80;;;;;;;23.61;94.48;97333.34;4998084;28;103314;-62
2023/08/01 08:57:27;;;;;;;3.45;2.45;;;;;;;23.70;93.03;97335.75;5018032;27;103103;-65
2023/08/01 09:00:00;;;;;;;4.05;2.47;;;;;;;23.96;91.29;97336.25;5000992;28;102547;-62
2023/08/01 09:02:34;;;;;;;3.47;2.50;;;;;;;23.43;92.03;97324.47;5000847;28;104073;-66
2023/08/01 09:05:07;;;;;;;2.58;2.38;;;;;;;23.37;93.74;97336.09;5000740;28;103775;-65
2023/08/01 09:07:43;;;;;;;4.00;2.60;;;;;;;23.50;95.09;97336.81;5000633;28;103238;-65
2023/08/01 09:10:14;;;;;;;3.95;2.47;;;;;;;23.02;95.01;97343.91;4999143;28;102650;-65
2023/08/01 09:12:45;;;;;;;4.10;2.53;;;;;;;23.26;95.29;97336.84;5002283;28;104803;-66
2023/08/01 09:15:16;;;;;;;3.47;2.58;;;;;;;22.87;97.64;97340.75;4995886;28;103928;-66
2023/08/01 09:17:51;;;;;;;3.05;2.58;;;;;;;22.86;96.07;97344.47;4998123;28;102761;-65
2023/08/01 09:20:23;;;;;;;3.17;2.25;;;;;;;23.22;94.63;97349.94;4997709;28;104498;-64
2023/08/01 09:22:53;;;;;;;2.63;2.25;;;;;;;22.92;98.63;97344.44;4997300;28;103693;-64
2023/08/01 09:25:35;;;;;;;2.83;2.42;;;;;;;23.72;95.25;97349.84;4998448;28;103849;-64
2023/08/01 09:28:17;;;;;;;3.43;2.23;;;;;;;23.98;93.93;97350.31;4999953;28;102981;-65
2023/08/01 09:30:51;;;;;;;2.80;2.20;;;;;;;23.59;94.05;97350.81;4997275;28;102958;-64
2023/08/01 09:33:22;;;;;;;3.13;2.00;;;;;;;23.02;97.56;97350.13;4997330;28;102989;-61
2023/08/01 09:35:55;;;;;;;2.15;1.70;;;;;;;23.39;96.34;97356.41;5000426;28;103494;-61
2023/08/01 09:38:26;;;;;;;2.65;2.00;;;;;;;23.90;96.77;97352.50;4997801;28;103498;-62
2023/08/01 09:40:58;;;;;;;2.50;1.57;;;;;;;23.33;96.45;97351.88;4999388;28;102810;-61
2023/08/01 09:43:37;;;;;;;2.42;1.70;;;;;;;23.93;95.88;97362.84;4997709;28;102747;-65
2023/08/01 09:46:14;;;;;;;2.27;1.60;;;;;;;24.54;92.81;97360.75;4997056;28;103341;-61
2023/08/01 09:48:54;;;;;;;2.58;1.50;;;;;;;24.02;94.96;97362.31;4998988;28;103443;-61
2023/08/01 09:51:27;;;;;;;1.60;1.30;;;;;;;23.66;96.21;97365.84;4997800;28;102658;-65
2023/08/01 09:54:00;;;;;;;1.60;1.20;;;;;;;24.43;94.76;97356.16;5001178;28;103119;-61
2023/08/01 09:56:32;;;;;;;1.30;1.10;;;;;;;24.55;91.52;97350.78;4998798;28;104270;-62
2023/08/01 09:59:04;;;;;;;1.33;1.08;;;;;;;24.84;91.31;97366.16;4999707;28;103041;-62
2023/08/01 10:01:38;;;;;;;1.70;1.23;;;;;;;24.33;93.28;97355.91;4999647;28;102599;-65
2023/08/01 10:04:11;;;;;;;1.30;1.10;;;;;;;24.79;92.19;97349.75;4998063;28;102824;-62
2023/08/01 10:06:48;;;;;;;1.10;1.00;;;;;;;24.96;91.16;97358.84;4995241;28;103108;-62
2023/08/01 10:09:23;;;;;;;1.42;1.00;;;;;;;24.75;91.77;97373.72;5000546;28;103231;-63
2023/08/01 10:11:58;;;;;;;0.70;0.70;;;;;;;24.78;91.69;97370.56;4999603;28;102569;-62
2023/08/01 10:14:29;;;;;;;1.10;0.73;;;;;;;24.71;91.88;97377.94;4996749;28;104135;-63
2023/08/01 10:17:03;;;;;;;1.00;0.90;;;;;;;24.59;93.67;97368.97;4999561;28;103109;-62
2023/08/01 10:19:34;;;;;;;0.82;0.70;;;;;;;24.88;90.28;97372.72;4993271;28;103197;-65
2023/08/01 10:22:08;;;;;;;0.60;0.50;;;;;;;25.54;87.99;97377.81;4995608;28;102768;-62
2023/08/01 10:24:41;;;;;;;1.10;0.90;;;;;;;24.59;89.77;97377.06;4994672;28;102897;-62
2023/08/01 10:27:13;;;;;;;1.83;1.03;;;;;;;24.46;91.19;97379.16;4994717;28;103688;-62
2023/08/01 10:29:43;;;;;;;0.93;0.82;;;;;;;24.30;91.03;97396.00;4996771;28;104261;-62
2023/08/01 10:32:13;;;;;;;1.60;1.23;;;;;;;23.36;96.01;97389.16;4999014;28;103251;-65
2023/08/01 10:34:52;;;;;;;1.55;1.33;;;;;;;24.38;92.02;97384.88;4998173;28;102728;-66
2023/08/01 10:37:25;;;;;;;1.27;0.90;;;;;;;24.75;90.08;97379.13;4997660;28;104133;-66
2023/08/01 10:39:59;;;;;;;1.40;0.80;;;;;;;24.82;87.41;97387.13;5004764;28;103053;-66
2023/08/01 10:58:56;;;;;;;1.00;0.60;;;;;;;26.47;76.68;97393.81;5008836;28;102949;-64
2023/08/01 11:02:11;;;;;;;1.13;0.70;;;;;;;26.66;75.48;97392.53;5002401;28;104497;-62
2023/08/01 11:17:15;;;;;;;1.58;0.80;;;;;;;27.04;71.33;97408.94;4903030;28;102876;-64
2023/08/01 11:19:48;;;;;;;1.60;1.13;;;;;;;25.75;71.32;97409.63;4943288;28;103777;-65
2023/08/01 11:22:39;;;;;;;1.98;0.90;;;;;;;25.43;70.37;97418.34;4997397;28;103231;-64
2023/08/01 11:29:30;;;;;;;2.70;0.90;;;;;;;25.92;69.18;97428.66;4991195;28;102906;-64
2023/08/01 11:33:07;;;;;;;1.50;0.95;;;;;;;26.92;66.76;97429.84;4988370;28;103102;-64
2023/08/01 11:37:29;;;;;;;1.40;1.10;;;;;;;27.46;65.69;97431.03;4992941;28;103136;-64
2023/08/01 11:40:29;;;;;;;0.80;0.80;;;;;;;26.42;66.68;97437.84;4994402;28;102891;-64
2023/08/01 11:43:46;;;;;;;3.20;1.10;;;;;;;26.69;67.92;97439.97;4991549;27;102981;-64
2023/08/01 11:50:31;;;;;;;2.67;1.15;;;;;;;27.26;65.41;97438.00;5002518;28;103080;-64
2023/08/01 12:02:20;;;;;;;1.30;1.10;;;;;;;27.74;58.86;97449.06;5003475;28;102959;-65
2023/08/01 12:13:29;;;;;;;2.13;1.40;;;;;;;28.91;57.58;97437.78;5002723;28;103793;-65
2023/08/01 12:16:32;;;;;;;2.05;1.25;;;;;;;28.67;57.21;97442.69;4996878;28;103065;-64
2023/08/01 12:19:34;;;;;;;2.05;1.20;;;;;;;28.12;58.00;97440.97;5000691;28;102982;-65
2023/08/01 12:22:28;;;;;;;1.10;1.00;;;;;;;28.61;57.36;97443.69;4991886;28;102688;-64
2023/08/01 12:25:16;;;;;;;1.93;1.13;;;;;;;27.92;56.48;97456.13;4992681;28;102887;-64
2023/08/01 12:31:01;;;;;;;1.20;1.00;;;;;;;27.33;56.51;97452.22;5010897;27;103166;-65
2023/08/01 12:34:07;;;;;;;1.50;1.30;;;;;;;27.36;55.85;97454.44;4994134;28;102759;-64
2023/08/01 12:36:48;;;;;;;1.45;1.10;;;;;;;27.49;54.84;97456.84;5010765;27;104337;-64
2023/08/01 12:39:20;;;;;;;2.57;1.30;;;;;;;27.94;54.96;97454.78;5004058;28;103429;-64
2023/08/01 12:42:45;;;;;;;2.10;1.30;;;;;;;27.34;54.19;97470.94;4996733;28;103113;-65
2023/08/01 12:45:26;;;;;;;1.45;1.10;;;;;;;27.28;55.01;97460.28;4996306;28;102662;-64